createdAt,value
2023-05-19T00:00:01.200Z,14.80
2023-05-19T00:02:34.173Z,14.80
2023-05-19T00:05:02.345Z,14.70
2023-05-19T00:07:31.517Z,14.70
2023-05-19T00:09:58.886Z,14.70
2023-05-19T00:12:26.558Z,14.60
2023-05-19T00:15:00.144Z,14.60
2023-05-19T00:17:30.410Z,14.60
2023-05-19T00:19:58.085Z,14.60
2023-05-19T00:22:26.119Z,14.60
2023-05-19T00:24:53.200Z,14.60
2023-05-19T00:27:20.472Z,14.60
2023-05-19T00:29:47.859Z,14.60
2023-05-19T00:32:15.955Z,14.60
2023-05-19T00:34:43.203Z,14.60
2023-05-19T00:37:10.265Z,14.60
2023-05-19T00:39:37.398Z,14.60
2023-05-19T00:42:06.063Z,14.60
2023-05-19T00:44:35.928Z,14.60
2023-05-19T00:47:05.720Z,14.70
2023-05-19T00:49:37.064Z,14.70
2023-05-19T00:52:04.597Z,14.80
2023-05-19T00:54:31.710Z,14.80
2023-05-19T00:56:59.336Z,14.80
2023-05-19T00:59:26.669Z,14.90
2023-05-19T01:01:53.715Z,14.80
2023-05-19T01:04:21.956Z,14.80
2023-05-19T01:06:58.120Z,14.80
2023-05-19T01:09:25.179Z,14.80
2023-05-19T01:11:52.361Z,14.80
2023-05-19T01:14:19.669Z,14.80
2023-05-19T01:16:51.894Z,14.80
2023-05-19T01:19:31.022Z,14.80
2023-05-19T01:22:16.567Z,14.80
2023-05-19T01:25:11.493Z,14.80
2023-05-19T01:28:00.333Z,14.80
2023-05-19T01:30:29.239Z,14.80
2023-05-19T01:33:01.209Z,14.80
2023-05-19T01:35:28.530Z,14.80
2023-05-19T01:37:57.938Z,14.70
2023-05-19T01:40:25.821Z,14.70
2023-05-19T01:42:57.886Z,14.60
2023-05-19T01:45:26.230Z,14.60
2023-05-19T01:47:57.815Z,14.60
2023-05-19T01:50:25.020Z,14.50
2023-05-19T01:52:52.186Z,14.50
2023-05-19T01:55:19.442Z,14.50
2023-05-19T01:58:02.077Z,14.40
2023-05-19T02:00:51.894Z,14.40
2023-05-19T02:03:26.684Z,14.40
2023-05-19T02:06:03.029Z,14.40
2023-05-19T02:08:30.090Z,14.40
2023-05-19T02:11:27.667Z,14.40
2023-05-19T02:13:56.415Z,14.40
2023-05-19T02:16:26.997Z,14.40
2023-05-19T02:18:54.241Z,14.40
2023-05-19T02:21:21.320Z,14.40
2023-05-19T02:23:49.190Z,14.40
2023-05-19T02:26:16.241Z,14.40
2023-05-19T02:28:43.253Z,14.40
2023-05-19T02:31:10.351Z,14.40
2023-05-19T02:33:37.712Z,14.40
2023-05-19T02:36:05.613Z,14.40
2023-05-19T02:38:34.498Z,14.30
2023-05-19T02:41:01.815Z,14.30
2023-05-19T02:43:31.852Z,14.40
2023-05-19T02:45:58.962Z,14.40
2023-05-19T02:48:26.437Z,14.40
2023-05-19T02:50:53.506Z,14.50
2023-05-19T02:53:20.499Z,14.50
2023-05-19T02:55:47.629Z,14.50
2023-05-19T02:58:14.781Z,14.50
2023-05-19T03:00:41.992Z,14.50
2023-05-19T03:03:10.490Z,14.50
2023-05-19T03:05:37.703Z,14.50
2023-05-19T03:08:05.020Z,14.50
2023-05-19T03:10:32.325Z,14.50
2023-05-19T03:12:59.772Z,14.50
2023-05-19T03:15:26.842Z,14.40
2023-05-19T03:17:56.638Z,14.40
2023-05-19T03:20:24.667Z,14.40
2023-05-19T03:22:51.845Z,14.40
2023-05-19T03:25:18.950Z,14.40
2023-05-19T03:27:45.973Z,14.50
2023-05-19T03:30:13.781Z,14.50
2023-05-19T03:32:41.060Z,14.50
2023-05-19T03:35:08.478Z,14.40
2023-05-19T03:37:35.785Z,14.40
2023-05-19T03:40:02.856Z,14.50
2023-05-19T03:42:30.163Z,14.50
2023-05-19T03:44:57.285Z,14.50
2023-05-19T03:47:24.417Z,14.50
2023-05-19T03:49:51.560Z,14.40
2023-05-19T03:52:18.681Z,14.40
2023-05-19T03:54:46.003Z,14.40
2023-05-19T03:57:13.904Z,14.40
2023-05-19T03:59:41.600Z,14.40
2023-05-19T04:02:14.057Z,14.30
2023-05-19T04:04:41.557Z,14.30
2023-05-19T04:07:08.811Z,14.30
2023-05-19T04:09:36.264Z,14.40
2023-05-19T04:12:03.385Z,14.40
2023-05-19T04:14:30.437Z,14.40
2023-05-19T04:16:57.652Z,14.40
2023-05-19T04:19:28.170Z,14.50
2023-05-19T04:21:55.480Z,14.60
2023-05-19T04:24:22.568Z,14.60
2023-05-19T04:26:49.613Z,14.60
2023-05-19T04:29:18.516Z,14.70
2023-05-19T04:31:46.122Z,14.70
2023-05-19T04:34:13.235Z,14.70
2023-05-19T04:36:40.648Z,14.80
2023-05-19T04:39:10.213Z,14.90
2023-05-19T04:41:40.630Z,14.90
2023-05-19T04:44:24.194Z,14.90
2023-05-19T04:46:54.574Z,14.90
2023-05-19T04:49:21.866Z,15.00
2023-05-19T04:51:53.280Z,14.90
2023-05-19T04:54:22.014Z,14.80
2023-05-19T04:56:49.073Z,14.70
2023-05-19T04:59:16.112Z,14.80
2023-05-19T05:01:43.544Z,14.80
2023-05-19T05:04:10.804Z,14.90
2023-05-19T05:06:40.658Z,14.90
2023-05-19T05:09:12.444Z,15.00
2023-05-19T05:11:40.765Z,15.10
2023-05-19T05:14:09.644Z,15.10
2023-05-19T05:16:37.425Z,15.20
2023-05-19T05:19:04.891Z,15.20
2023-05-19T05:21:33.111Z,15.30
2023-05-19T05:24:00.506Z,15.30
2023-05-19T05:26:30.385Z,15.30
2023-05-19T05:28:57.636Z,15.30
2023-05-19T05:31:24.820Z,15.30
2023-05-19T05:33:52.103Z,15.40
2023-05-19T05:36:19.333Z,15.50
2023-05-19T05:38:46.552Z,15.60
2023-05-19T05:41:13.610Z,15.70
2023-05-19T05:43:40.928Z,15.70
2023-05-19T05:46:08.083Z,15.80
2023-05-19T05:48:35.563Z,15.90
2023-05-19T05:51:03.034Z,16.00
2023-05-19T05:53:31.232Z,16.00
2023-05-19T05:55:58.732Z,16.10
2023-05-19T05:58:26.076Z,16.20
2023-05-19T06:00:57.277Z,16.30
2023-05-19T06:03:24.837Z,16.50
2023-05-19T06:05:53.259Z,16.50
2023-05-19T06:08:20.529Z,16.50
2023-05-19T06:10:47.735Z,16.50
2023-05-19T06:13:18.123Z,16.70
2023-05-19T06:15:45.369Z,16.70
2023-05-19T06:18:12.572Z,16.70
2023-05-19T06:20:39.711Z,16.70
2023-05-19T06:23:06.975Z,16.70
2023-05-19T06:25:36.903Z,16.70
2023-05-19T06:28:04.152Z,16.70
2023-05-19T06:30:31.697Z,16.70
2023-05-19T06:32:59.119Z,16.70
2023-05-19T06:35:26.234Z,16.70
2023-05-19T06:37:54.346Z,16.70
2023-05-19T06:40:22.539Z,16.70
2023-05-19T06:42:49.637Z,16.70
2023-05-19T06:45:17.002Z,16.70
2023-05-19T06:47:45.254Z,16.70
2023-05-19T06:50:13.457Z,16.70
2023-05-19T06:52:41.355Z,16.70
2023-05-19T06:55:08.822Z,16.90
2023-05-19T06:57:36.347Z,17.00
2023-05-19T07:00:04.496Z,17.10
2023-05-19T07:02:31.783Z,17.10
2023-05-19T07:04:59.435Z,17.20
2023-05-19T07:07:27.410Z,17.20
2023-05-19T07:09:54.972Z,17.30
2023-05-19T07:12:22.143Z,17.40
2023-05-19T07:14:49.460Z,17.50
2023-05-19T07:17:16.738Z,17.50
2023-05-19T07:19:44.278Z,17.60
2023-05-19T07:22:11.785Z,17.70
2023-05-19T07:24:38.851Z,17.70
2023-05-19T07:27:06.187Z,17.60
2023-05-19T07:29:33.391Z,17.60
2023-05-19T07:32:00.663Z,17.50
2023-05-19T07:34:27.937Z,17.40
2023-05-19T07:36:55.121Z,17.30
2023-05-19T07:39:25.268Z,17.20
2023-05-19T07:41:55.833Z,17.10
2023-05-19T07:44:22.831Z,17.00
2023-05-19T07:46:50.099Z,17.00
2023-05-19T07:49:17.161Z,16.90
2023-05-19T07:51:45.161Z,16.80
2023-05-19T07:54:12.426Z,16.90
2023-05-19T07:56:39.752Z,17.00
2023-05-19T07:59:08.191Z,17.00
2023-05-19T08:01:35.475Z,17.00
2023-05-19T08:04:06.168Z,17.00
2023-05-19T08:06:33.408Z,17.00
2023-05-19T08:09:00.515Z,17.00
2023-05-19T08:11:27.729Z,17.00
2023-05-19T08:13:54.889Z,16.90
2023-05-19T08:16:22.149Z,16.80
2023-05-19T08:18:49.347Z,16.80
2023-05-19T08:21:16.879Z,16.80
2023-05-19T08:23:44.101Z,16.80
2023-05-19T08:26:11.306Z,16.80
2023-05-19T08:28:40.705Z,16.80
2023-05-19T08:31:07.827Z,16.80
2023-05-19T08:33:34.956Z,16.70
2023-05-19T08:36:02.131Z,16.70
2023-05-19T08:38:29.184Z,16.70
2023-05-19T08:40:58.241Z,16.60
2023-05-19T08:43:25.408Z,16.60
2023-05-19T08:45:54.208Z,16.70
2023-05-19T08:48:21.749Z,16.80
2023-05-19T08:51:25.066Z,17.00
2023-05-19T08:53:53.176Z,17.00
2023-05-19T08:56:26.949Z,17.10
2023-05-19T08:58:54.144Z,17.10
2023-05-19T09:01:21.394Z,17.10
2023-05-19T09:03:50.205Z,17.10
2023-05-19T09:06:17.901Z,17.20
2023-05-19T09:08:44.978Z,17.20
2023-05-19T09:11:12.467Z,17.30
2023-05-19T09:13:39.625Z,17.40
2023-05-19T09:16:07.117Z,17.50
2023-05-19T09:18:34.375Z,17.70
2023-05-19T09:21:03.203Z,17.80
2023-05-19T09:23:33.877Z,17.70
2023-05-19T09:26:05.020Z,17.80
2023-05-19T09:28:33.463Z,17.90
2023-05-19T09:31:04.497Z,18.00
2023-05-19T09:33:33.765Z,18.10
2023-05-19T09:36:03.777Z,18.20
2023-05-19T09:38:30.994Z,18.40
2023-05-19T09:40:59.175Z,18.60
2023-05-19T09:43:33.816Z,18.80
2023-05-19T09:46:04.087Z,19.00
2023-05-19T09:48:31.289Z,19.20
2023-05-19T09:51:02.110Z,19.20
2023-05-19T09:53:32.759Z,19.20
2023-05-19T09:56:02.192Z,19.10
2023-05-19T09:58:35.595Z,19.30
2023-05-19T10:01:03.851Z,19.50
2023-05-19T10:03:32.760Z,19.80
2023-05-19T10:06:04.303Z,19.80
2023-05-19T10:08:32.039Z,19.70
2023-05-19T10:10:59.207Z,19.60
2023-05-19T10:13:26.806Z,19.40
2023-05-19T10:15:59.409Z,19.30
2023-05-19T10:18:30.376Z,19.20
2023-05-19T10:20:58.264Z,19.10
2023-05-19T10:23:25.984Z,18.90
2023-05-19T10:25:54.282Z,18.70
2023-05-19T10:28:23.732Z,18.60
2023-05-19T10:30:51.461Z,18.60
2023-05-19T10:33:21.276Z,18.40
2023-05-19T10:36:23.382Z,18.30
2023-05-19T10:39:01.259Z,18.20
2023-05-19T10:42:07.687Z,18.10
2023-05-19T10:45:04.786Z,18.00
2023-05-19T10:47:33.313Z,18.00
2023-05-19T10:50:04.822Z,17.90
2023-05-19T10:52:33.428Z,17.90
2023-05-19T10:55:02.156Z,18.00
2023-05-19T10:57:32.089Z,18.30
2023-05-19T11:00:10.797Z,18.60
2023-05-19T11:02:45.232Z,19.10
2023-05-19T11:05:18.455Z,19.90
2023-05-19T11:07:56.432Z,20.60
2023-05-19T11:10:24.116Z,21.30
2023-05-19T11:12:52.231Z,21.70
2023-05-19T11:15:19.464Z,21.90
2023-05-19T11:17:49.114Z,22.00
2023-05-19T11:20:26.590Z,22.20
2023-05-19T11:23:09.450Z,22.30
2023-05-19T11:25:50.456Z,22.50
2023-05-19T11:28:26.122Z,22.90
2023-05-19T11:30:57.590Z,23.10
2023-05-19T11:33:27.711Z,23.20
2023-05-19T11:35:58.673Z,23.30
2023-05-19T11:38:26.994Z,23.40
2023-05-19T11:40:54.333Z,23.50
2023-05-19T11:43:25.180Z,23.40
2023-05-19T11:45:54.311Z,23.40
2023-05-19T11:48:22.471Z,23.40
2023-05-19T11:50:50.048Z,23.30
2023-05-19T11:53:17.380Z,23.10
2023-05-19T11:55:48.074Z,23.00
2023-05-19T11:58:16.239Z,23.20
2023-05-19T12:00:46.254Z,23.30
2023-05-19T12:03:13.881Z,23.40
2023-05-19T12:05:48.235Z,23.60
2023-05-19T12:08:17.937Z,23.70
2023-05-19T12:10:45.630Z,23.90
2023-05-19T12:13:12.780Z,24.10
2023-05-19T12:15:39.902Z,24.30
2023-05-19T12:18:07.697Z,24.40
2023-05-19T12:20:37.942Z,24.60
2023-05-19T12:23:05.556Z,24.90
2023-05-19T12:25:33.077Z,25.00
2023-05-19T12:28:05.206Z,25.00
2023-05-19T12:30:33.622Z,24.80
2023-05-19T12:33:01.989Z,24.80
2023-05-19T12:35:30.856Z,24.70
2023-05-19T12:37:58.229Z,24.60
2023-05-19T12:40:26.562Z,24.50
2023-05-19T12:42:59.351Z,24.60
2023-05-19T12:45:28.671Z,24.60
2023-05-19T12:47:56.981Z,24.30
2023-05-19T12:50:31.408Z,24.20
2023-05-19T12:53:00.068Z,24.20
2023-05-19T12:55:27.470Z,24.40
2023-05-19T12:57:58.355Z,24.50
2023-05-19T13:00:28.425Z,24.60
2023-05-19T13:03:03.310Z,24.50
2023-05-19T13:05:31.991Z,24.60
2023-05-19T13:08:00.778Z,24.60
2023-05-19T13:10:28.426Z,24.60
2023-05-19T13:12:55.911Z,24.60
2023-05-19T13:15:24.760Z,24.50
2023-05-19T13:17:52.317Z,24.30
2023-05-19T13:20:20.362Z,24.20
2023-05-19T13:22:48.314Z,24.10
2023-05-19T13:25:15.630Z,24.20
2023-05-19T13:27:44.865Z,24.20
2023-05-19T13:30:12.547Z,24.20
2023-05-19T13:32:39.824Z,24.30
2023-05-19T13:35:07.527Z,24.30
2023-05-19T13:37:36.276Z,24.40
2023-05-19T13:40:03.835Z,24.40
2023-05-19T13:42:32.027Z,24.50
2023-05-19T13:44:59.219Z,24.50
2023-05-19T13:47:26.395Z,24.50
2023-05-19T13:49:53.586Z,24.50
2023-05-19T13:52:21.255Z,24.40
2023-05-19T13:54:48.785Z,24.40
2023-05-19T13:57:16.666Z,24.30
2023-05-19T13:59:57.696Z,24.20
2023-05-19T14:02:30.214Z,24.10
2023-05-19T14:04:57.723Z,24.00
2023-05-19T14:07:25.920Z,24.00
2023-05-19T14:09:55.544Z,23.90
2023-05-19T14:12:25.412Z,23.80
2023-05-19T14:14:58.781Z,23.90
2023-05-19T14:17:27.682Z,24.00
2023-05-19T14:19:55.018Z,23.90
2023-05-19T14:22:22.120Z,23.90
2023-05-19T14:24:49.265Z,23.70
2023-05-19T14:27:16.384Z,23.60
2023-05-19T14:29:43.710Z,23.50
2023-05-19T14:32:10.899Z,23.40
2023-05-19T14:34:37.955Z,23.40
2023-05-19T14:37:06.299Z,23.30
2023-05-19T14:39:33.365Z,23.30
2023-05-19T14:42:00.355Z,23.20
2023-05-19T14:44:33.062Z,23.20
2023-05-19T14:47:02.005Z,23.20
2023-05-19T14:49:29.325Z,23.00
2023-05-19T14:51:56.745Z,22.90
2023-05-19T14:54:23.854Z,22.80
2023-05-19T14:56:51.042Z,22.70
2023-05-19T14:59:18.153Z,22.70
2023-05-19T15:01:45.346Z,22.70
2023-05-19T15:04:12.647Z,22.70
2023-05-19T15:06:39.799Z,22.60
2023-05-19T15:09:07.191Z,22.70
2023-05-19T15:11:34.374Z,22.60
2023-05-19T15:14:01.674Z,22.50
2023-05-19T15:16:28.887Z,22.30
2023-05-19T15:18:56.369Z,22.20
2023-05-19T15:21:23.707Z,22.10
2023-05-19T15:23:50.852Z,22.00
2023-05-19T15:26:17.968Z,22.00
2023-05-19T15:28:45.129Z,22.10
2023-05-19T15:31:12.595Z,22.10
2023-05-19T15:33:39.826Z,22.10
2023-05-19T15:36:07.192Z,22.10
2023-05-19T15:38:37.692Z,22.20
2023-05-19T15:41:08.513Z,22.20
2023-05-19T15:43:35.693Z,22.20
2023-05-19T15:46:05.125Z,22.20
2023-05-19T15:48:32.711Z,22.20
2023-05-19T15:51:00.149Z,22.10
2023-05-19T15:53:27.501Z,22.10
2023-05-19T15:55:54.758Z,22.10
2023-05-19T15:58:24.696Z,22.00
2023-05-19T16:00:52.165Z,22.00
2023-05-19T16:03:20.569Z,22.00
2023-05-19T16:05:50.393Z,22.10
2023-05-19T16:08:23.106Z,22.10
2023-05-19T16:10:58.338Z,22.10
2023-05-19T16:13:42.972Z,22.10
2023-05-19T16:16:10.483Z,22.00
2023-05-19T16:18:37.766Z,21.90
2023-05-19T16:21:05.292Z,21.80
2023-05-19T16:23:32.488Z,21.70
2023-05-19T16:25:59.622Z,21.60
2023-05-19T16:28:28.161Z,21.60
2023-05-19T16:31:01.247Z,21.60
2023-05-19T16:33:28.511Z,21.50
2023-05-19T16:35:56.285Z,21.30
2023-05-19T16:38:23.422Z,21.30
2023-05-19T16:40:50.585Z,21.30
2023-05-19T16:43:17.863Z,21.30
2023-05-19T16:45:45.080Z,21.30
2023-05-19T16:48:12.272Z,21.20
2023-05-19T16:50:40.079Z,21.20
2023-05-19T16:53:07.274Z,21.20
2023-05-19T16:55:34.337Z,21.20
2023-05-19T16:58:01.554Z,21.00
2023-05-19T17:00:29.985Z,21.00
2023-05-19T17:02:57.212Z,20.90
2023-05-19T17:05:24.321Z,20.80
2023-05-19T17:07:51.562Z,20.80
2023-05-19T17:10:18.804Z,20.70
2023-05-19T17:12:46.029Z,20.60
2023-05-19T17:15:13.108Z,20.50
2023-05-19T17:17:42.300Z,20.50
2023-05-19T17:20:09.973Z,20.40
2023-05-19T17:22:37.320Z,20.30
2023-05-19T17:25:04.788Z,20.30
2023-05-19T17:27:32.072Z,20.30
2023-05-19T17:29:59.227Z,20.20
2023-05-19T17:32:28.606Z,20.10
2023-05-19T17:34:56.129Z,20.10
2023-05-19T17:37:25.825Z,20.00
2023-05-19T17:39:53.092Z,20.00
2023-05-19T17:42:20.262Z,20.00
2023-05-19T17:44:47.490Z,20.00
2023-05-19T17:47:14.719Z,20.00
2023-05-19T17:49:41.926Z,20.00
2023-05-19T17:52:09.783Z,19.90
2023-05-19T17:54:37.274Z,19.80
2023-05-19T17:57:04.495Z,19.80
2023-05-19T17:59:31.936Z,19.70
2023-05-19T18:01:59.390Z,19.60
2023-05-19T18:04:26.810Z,19.60
2023-05-19T18:06:54.024Z,19.60
2023-05-19T18:09:21.572Z,19.50
2023-05-19T18:11:48.736Z,19.40
2023-05-19T18:14:15.993Z,19.40
2023-05-19T18:16:43.427Z,19.40
2023-05-19T18:19:11.052Z,19.30
2023-05-19T18:21:38.263Z,19.20
2023-05-19T18:24:06.252Z,19.20
2023-05-19T18:26:33.732Z,19.10
2023-05-19T18:29:04.924Z,19.10
2023-05-19T18:31:32.195Z,19.10
2023-05-19T18:33:59.298Z,19.10
2023-05-19T18:36:26.616Z,19.10
2023-05-19T18:38:55.257Z,19.10
2023-05-19T18:41:22.429Z,19.10
2023-05-19T18:43:49.542Z,19.10
2023-05-19T18:46:19.815Z,19.00
2023-05-19T18:48:47.464Z,18.90
2023-05-19T18:51:16.073Z,18.80
2023-05-19T18:53:43.222Z,18.80
2023-05-19T18:56:11.576Z,18.80
2023-05-19T18:58:38.733Z,18.70
2023-05-19T19:01:06.109Z,18.70
2023-05-19T19:03:33.239Z,18.70
2023-05-19T19:06:00.641Z,18.60
2023-05-19T19:08:27.775Z,18.60
2023-05-19T19:10:59.386Z,18.50
2023-05-19T19:13:27.049Z,18.50
2023-05-19T19:15:54.238Z,18.50
2023-05-19T19:18:21.573Z,18.50
2023-05-19T19:20:48.643Z,18.40
2023-05-19T19:23:16.269Z,18.30
2023-05-19T19:25:43.403Z,18.20
2023-05-19T19:28:10.874Z,18.10
2023-05-19T19:30:38.043Z,18.10
2023-05-19T19:33:06.700Z,18.10
2023-05-19T19:35:34.033Z,18.10
2023-05-19T19:38:01.660Z,18.10
2023-05-19T19:40:29.464Z,18.10
2023-05-19T19:42:56.826Z,18.10
2023-05-19T19:45:24.073Z,18.10
2023-05-19T19:47:51.960Z,18.00
2023-05-19T19:50:19.220Z,18.00
2023-05-19T19:52:46.375Z,18.00
2023-05-19T19:55:13.720Z,18.00
2023-05-19T19:57:40.890Z,18.00
2023-05-19T20:00:09.091Z,17.90
2023-05-19T20:02:45.589Z,17.90
2023-05-19T20:05:22.840Z,17.80
2023-05-19T20:07:49.983Z,17.80
2023-05-19T20:10:17.182Z,17.80
2023-05-19T20:12:44.610Z,17.70
2023-05-19T20:15:11.944Z,17.70
2023-05-19T20:17:39.007Z,17.70
2023-05-19T20:20:11.149Z,17.70
2023-05-19T20:22:38.959Z,17.70
2023-05-19T20:25:07.049Z,17.70
2023-05-19T20:27:34.582Z,17.70
2023-05-19T20:30:01.766Z,17.60
2023-05-19T20:32:28.930Z,17.60
2023-05-19T20:34:56.058Z,17.60
2023-05-19T20:37:23.200Z,17.60
2023-05-19T20:39:50.308Z,17.50
2023-05-19T20:42:17.423Z,17.40
2023-05-19T20:44:44.510Z,17.40
2023-05-19T20:47:11.791Z,17.40
2023-05-19T20:49:39.082Z,17.30
2023-05-19T20:52:06.510Z,17.30
2023-05-19T20:54:33.559Z,17.30
2023-05-19T20:57:01.422Z,17.20
2023-05-19T20:59:28.477Z,17.20
2023-05-19T21:01:55.654Z,17.20
2023-05-19T21:04:22.815Z,17.00
2023-05-19T21:06:50.224Z,17.00
2023-05-19T21:09:17.600Z,16.90
2023-05-19T21:11:45.221Z,16.90
2023-05-19T21:14:12.472Z,16.90
2023-05-19T21:16:39.950Z,16.80
2023-05-19T21:19:07.252Z,16.80
2023-05-19T21:21:34.518Z,16.80
2023-05-19T21:24:01.590Z,16.80
2023-05-19T21:26:28.709Z,16.80
2023-05-19T21:28:56.036Z,16.80
2023-05-19T21:31:23.315Z,16.80
2023-05-19T21:33:50.484Z,16.70
2023-05-19T21:36:18.460Z,16.60
2023-05-19T21:38:45.678Z,16.60
2023-05-19T21:41:13.079Z,16.50
2023-05-19T21:43:41.491Z,16.50
2023-05-19T21:46:08.751Z,16.60
2023-05-19T21:48:35.944Z,16.50
2023-05-19T21:51:04.670Z,16.50
2023-05-19T21:53:33.021Z,16.40
2023-05-19T21:56:00.460Z,16.40
2023-05-19T21:58:27.565Z,16.30
2023-05-19T22:00:56.467Z,16.30
2023-05-19T22:03:23.787Z,16.40
2023-05-19T22:05:51.993Z,16.40
2023-05-19T22:08:19.562Z,16.40
2023-05-19T22:10:52.253Z,16.40
2023-05-19T22:13:20.365Z,16.40
2023-05-19T22:15:47.611Z,16.40
2023-05-19T22:18:14.724Z,16.30
2023-05-19T22:20:42.048Z,16.30
2023-05-19T22:23:12.317Z,16.30
2023-05-19T22:25:39.685Z,16.20
2023-05-19T22:28:08.396Z,16.20
2023-05-19T22:30:41.130Z,16.20
2023-05-19T22:33:11.823Z,16.20
2023-05-19T22:35:39.241Z,16.10
2023-05-19T22:38:07.493Z,16.10
2023-05-19T22:40:36.865Z,16.10
2023-05-19T22:43:04.113Z,16.10
2023-05-19T22:45:31.972Z,16.00
2023-05-19T22:47:59.431Z,16.00
2023-05-19T22:50:26.656Z,16.00
2023-05-19T22:52:53.935Z,15.90
2023-05-19T22:55:21.203Z,15.90
2023-05-19T22:57:48.410Z,15.90
2023-05-19T23:00:21.426Z,15.90
2023-05-19T23:02:48.621Z,15.90
2023-05-19T23:05:15.961Z,15.80
2023-05-19T23:07:43.132Z,15.80
2023-05-19T23:10:10.770Z,15.80
2023-05-19T23:12:40.325Z,15.70
2023-05-19T23:15:08.704Z,15.70
2023-05-19T23:17:36.520Z,15.60
2023-05-19T23:20:04.234Z,15.60
2023-05-19T23:22:31.544Z,15.50
2023-05-19T23:24:58.874Z,15.50
2023-05-19T23:27:26.159Z,15.40
2023-05-19T23:29:53.696Z,15.50
2023-05-19T23:32:20.895Z,15.40
2023-05-19T23:34:48.850Z,15.40
2023-05-19T23:37:16.319Z,15.30
2023-05-19T23:39:43.666Z,15.30
2023-05-19T23:42:10.876Z,15.20
2023-05-19T23:44:38.009Z,15.20
2023-05-19T23:47:05.412Z,15.20
2023-05-19T23:49:32.485Z,15.20
2023-05-19T23:51:59.634Z,15.10
2023-05-19T23:54:26.933Z,15.20
2023-05-19T23:56:55.920Z,15.10
2023-05-19T23:59:23.265Z,15.10
